createdAt,value
2023-04-14T00:00:25.142Z,23.80
2023-04-14T00:03:10.403Z,26.00
2023-04-14T00:05:39.752Z,26.30
2023-04-14T00:08:12.427Z,25.30
2023-04-14T00:10:42.890Z,27.00
2023-04-14T00:13:11.350Z,25.90
2023-04-14T00:15:42.698Z,26.70
2023-04-14T00:18:12.296Z,28.70
2023-04-14T00:20:40.634Z,28.80
2023-04-14T00:23:11.499Z,26.10
2023-04-14T00:25:40.364Z,31.00
2023-04-14T00:28:08.706Z,31.20
2023-04-14T00:30:40.251Z,31.90
2023-04-14T00:33:10.945Z,31.20
2023-04-14T00:35:39.449Z,31.30
2023-04-14T00:38:07.827Z,33.20
2023-04-14T00:40:36.415Z,33.90
2023-04-14T00:43:04.729Z,34.80
2023-04-14T00:45:44.182Z,35.50
2023-04-14T00:48:16.980Z,34.80
2023-04-14T00:50:46.400Z,34.20
2023-04-14T00:53:14.995Z,36.70
2023-04-14T00:55:43.685Z,36.80
2023-04-14T00:58:14.812Z,37.90
2023-04-14T01:00:43.340Z,34.80
2023-04-14T01:03:14.225Z,36.50
2023-04-14T01:05:43.657Z,39.10
2023-04-14T01:08:12.450Z,37.80
2023-04-14T01:10:54.035Z,39.50
2023-04-14T01:13:55.704Z,39.40
2023-04-14T01:16:34.143Z,38.00
2023-04-14T01:19:34.337Z,38.80
2023-04-14T01:22:06.967Z,38.90
2023-04-14T01:27:52.601Z,41.60
2023-04-14T01:30:39.865Z,43.40
2023-04-14T01:33:15.823Z,45.60
2023-04-14T01:35:53.345Z,43.50
2023-04-14T01:38:33.174Z,45.20
2023-04-14T01:41:06.798Z,42.90
2023-04-14T01:43:42.374Z,44.80
2023-04-14T01:46:14.934Z,46.00
2023-04-14T01:48:46.377Z,42.80
2023-04-14T01:51:19.091Z,42.70
2023-04-14T01:53:49.718Z,43.20
2023-04-14T01:56:19.649Z,42.30
2023-04-14T01:58:49.528Z,42.30
2023-04-14T02:01:20.299Z,44.50
2023-04-14T02:03:50.406Z,42.40
2023-04-14T02:06:23.096Z,43.70
2023-04-14T02:08:52.574Z,40.80
2023-04-14T02:11:22.302Z,43.70
2023-04-14T02:13:52.802Z,40.90
2023-04-14T02:16:23.958Z,43.40
2023-04-14T02:18:52.624Z,42.90
2023-04-14T02:21:26.833Z,40.90
2023-04-14T02:23:56.398Z,41.30
2023-04-14T02:26:31.237Z,43.00
2023-04-14T02:29:21.375Z,41.90
2023-04-14T02:32:11.855Z,41.90
2023-04-14T02:34:53.880Z,42.50
2023-04-14T02:37:26.243Z,42.20
2023-04-14T02:40:02.450Z,38.80
2023-04-14T02:42:37.426Z,41.50
2023-04-14T02:45:12.219Z,40.90
2023-04-14T02:47:48.343Z,40.60
2023-04-14T02:50:19.560Z,41.80
2023-04-14T02:53:00.273Z,43.70
2023-04-14T02:55:34.959Z,37.80
2023-04-14T02:58:04.517Z,40.30
2023-04-14T03:00:35.994Z,41.50
2023-04-14T03:03:07.003Z,39.30
2023-04-14T03:05:37.092Z,40.90
2023-04-14T03:08:16.230Z,40.20
2023-04-14T03:10:49.193Z,40.50
2023-04-14T03:13:22.654Z,41.90
2023-04-14T03:15:53.316Z,45.10
2023-04-14T03:18:22.809Z,42.50
2023-04-14T03:20:56.006Z,45.00
2023-04-14T03:23:26.131Z,44.10
2023-04-14T03:26:01.744Z,42.90
2023-04-14T03:28:37.568Z,48.30
2023-04-14T03:31:09.593Z,47.40
2023-04-14T03:33:58.319Z,46.40
2023-04-14T03:36:33.089Z,47.10
2023-04-14T03:39:06.189Z,47.40
2023-04-14T03:41:39.976Z,46.60
2023-04-14T03:44:15.991Z,46.40
2023-04-14T03:46:49.476Z,45.90
2023-04-14T03:49:21.117Z,47.40
2023-04-14T03:51:53.730Z,47.30
2023-04-14T03:54:25.659Z,45.70
2023-04-14T03:56:57.240Z,45.10
2023-04-14T03:59:35.750Z,43.60
2023-04-14T04:02:05.762Z,44.20
2023-04-14T04:04:36.904Z,44.30
2023-04-14T04:07:10.687Z,44.50
2023-04-14T04:09:41.373Z,43.40
2023-04-14T04:12:12.162Z,44.00
2023-04-14T04:14:40.695Z,42.50
2023-04-14T04:17:12.971Z,45.50
2023-04-14T04:19:43.916Z,42.90
2023-04-14T04:22:17.578Z,45.60
2023-04-14T04:24:47.581Z,44.60
2023-04-14T04:27:28.048Z,42.70
2023-04-14T04:30:02.404Z,42.40
2023-04-14T04:32:33.903Z,43.80
2023-04-14T04:35:03.716Z,44.20
2023-04-14T04:37:33.667Z,40.70
2023-04-14T04:40:04.055Z,40.60
2023-04-14T04:42:33.173Z,42.80
2023-04-14T04:45:02.225Z,39.80
2023-04-14T04:47:31.597Z,42.00
2023-04-14T04:50:01.104Z,40.50
2023-04-14T04:52:32.223Z,37.50
2023-04-14T04:55:00.595Z,37.70
2023-04-14T04:57:28.972Z,37.30
2023-04-14T04:59:57.243Z,36.10
2023-04-14T05:02:26.165Z,35.10
2023-04-14T05:04:54.788Z,34.80
2023-04-14T05:07:23.176Z,37.70
2023-04-14T05:09:53.710Z,35.70
2023-04-14T05:12:23.402Z,34.00
2023-04-14T05:14:51.768Z,30.70
2023-04-14T05:17:21.954Z,31.00
2023-04-14T05:19:50.269Z,31.30
2023-04-14T05:22:18.550Z,28.20
2023-04-14T05:24:50.864Z,26.50
2023-04-14T05:27:19.141Z,24.80
2023-04-14T05:29:48.435Z,23.90
2023-04-14T05:32:16.824Z,21.80
2023-04-14T05:34:45.457Z,21.80
2023-04-14T05:37:13.849Z,21.00
2023-04-14T05:39:42.154Z,22.20
2023-04-14T05:42:11.317Z,19.40
2023-04-14T05:44:39.979Z,21.40
2023-04-14T05:47:09.035Z,20.00
2023-04-14T05:49:37.457Z,17.20
2023-04-14T05:52:05.803Z,17.70
2023-04-14T05:54:41.319Z,15.40
2023-04-14T05:57:11.754Z,15.90
2023-04-14T05:59:40.082Z,14.40
2023-04-14T06:02:08.447Z,13.50
2023-04-14T06:04:37.928Z,12.70
2023-04-14T06:07:06.384Z,11.10
2023-04-14T06:09:34.849Z,10.90
2023-04-14T06:12:09.280Z,11.20
2023-04-14T06:14:38.085Z,10.10
2023-04-14T06:17:10.351Z,9.90
2023-04-14T06:19:38.876Z,10.10
2023-04-14T06:22:08.699Z,10.10
2023-04-14T06:24:37.122Z,8.70
2023-04-14T06:27:05.597Z,7.30
2023-04-14T06:29:35.586Z,8.20
2023-04-14T06:32:04.389Z,7.30
2023-04-14T06:34:33.349Z,7.50
2023-04-14T06:37:02.984Z,5.90
2023-04-14T06:39:31.364Z,5.70
2023-04-14T06:42:03.037Z,6.40
2023-04-14T06:44:32.126Z,4.40
2023-04-14T06:47:00.569Z,5.80
2023-04-14T06:49:34.031Z,5.80
2023-04-14T06:52:05.879Z,4.00
2023-04-14T06:54:35.151Z,4.60
2023-04-14T06:57:03.502Z,5.20
2023-04-14T06:59:33.517Z,9.20
2023-04-14T07:02:02.214Z,13.00
2023-04-14T07:04:30.961Z,6.70
2023-04-14T07:07:01.420Z,6.40
2023-04-14T07:09:29.988Z,6.70
2023-04-14T07:11:58.356Z,6.70
2023-04-14T07:14:26.731Z,5.40
2023-04-14T07:16:57.561Z,6.50
2023-04-14T07:19:26.250Z,5.20
2023-04-14T07:21:54.641Z,5.10
2023-04-14T07:24:24.370Z,5.60
2023-04-14T07:26:53.282Z,6.80
2023-04-14T07:29:22.251Z,8.30
2023-04-14T07:31:53.794Z,7.30
2023-04-14T07:34:22.870Z,6.80
2023-04-14T07:36:51.875Z,6.90
2023-04-14T07:39:23.907Z,6.30
2023-04-14T07:41:53.014Z,5.30
2023-04-14T07:44:24.733Z,5.70
2023-04-14T07:46:53.766Z,6.80
2023-04-14T07:49:22.187Z,6.20
2023-04-14T07:51:51.277Z,14.10
2023-04-14T07:54:20.228Z,7.90
2023-04-14T07:56:49.035Z,10.50
2023-04-14T07:59:17.738Z,7.50
2023-04-14T08:01:46.794Z,6.90
2023-04-14T08:04:15.947Z,6.40
2023-04-14T08:06:44.901Z,5.90
2023-04-14T08:09:45.986Z,11.10
2023-04-14T08:12:15.027Z,6.50
2023-04-14T08:14:43.458Z,8.10
2023-04-14T08:17:12.203Z,15.60
2023-04-14T08:19:41.501Z,11.40
2023-04-14T08:22:11.321Z,11.40
2023-04-14T08:24:42.268Z,9.60
2023-04-14T08:27:10.631Z,8.50
2023-04-14T08:29:39.087Z,8.10
2023-04-14T08:32:07.698Z,10.30
2023-04-14T08:34:36.975Z,8.20
2023-04-14T08:37:05.696Z,8.00
2023-04-14T08:39:34.625Z,9.80
2023-04-14T08:42:03.369Z,8.60
2023-04-14T08:44:31.966Z,8.60
2023-04-14T08:47:00.701Z,8.20
2023-04-14T08:49:39.899Z,8.00
2023-04-14T08:52:12.558Z,7.70
2023-04-14T08:57:12.104Z,9.20
2023-04-14T08:59:42.534Z,10.70
2023-04-14T09:02:13.581Z,11.00
2023-04-14T09:04:43.128Z,7.20
2023-04-14T09:07:13.037Z,6.50
2023-04-14T09:09:44.176Z,6.90
2023-04-14T09:12:15.904Z,7.00
2023-04-14T09:14:48.642Z,8.90
2023-04-14T09:17:17.644Z,8.40
2023-04-14T09:20:37.907Z,5.60
2023-04-14T09:22:36.735Z,5.20
2023-04-14T09:25:10.931Z,6.10
2023-04-14T09:27:43.701Z,7.30
2023-04-14T09:30:12.713Z,7.20
2023-04-14T09:32:43.801Z,5.70
2023-04-14T09:35:14.518Z,3.90
2023-04-14T09:37:48.888Z,4.80
2023-04-14T09:40:31.834Z,4.80
2023-04-14T09:43:01.257Z,4.10
2023-04-14T09:45:45.284Z,4.10
2023-04-14T09:48:14.149Z,4.60
2023-04-14T09:51:14.080Z,5.10
2023-04-14T09:53:48.598Z,6.10
2023-04-14T09:56:18.245Z,4.70
2023-04-14T09:58:50.616Z,3.90
2023-04-14T10:01:20.322Z,3.50
2023-04-14T10:03:50.677Z,4.20
2023-04-14T10:06:24.523Z,3.60
2023-04-14T10:08:55.060Z,4.10
2023-04-14T10:11:25.213Z,4.40
2023-04-14T10:13:54.894Z,3.70
2023-04-14T10:16:25.024Z,3.60
2023-04-14T10:18:54.978Z,4.50
2023-04-14T10:21:23.573Z,5.80
2023-04-14T10:23:52.440Z,2.80
2023-04-14T10:26:21.317Z,3.80
2023-04-14T10:28:51.711Z,3.90
2023-04-14T10:31:40.660Z,4.80
2023-04-14T10:34:13.908Z,3.50
2023-04-14T10:36:44.200Z,4.30
2023-04-14T10:39:12.803Z,4.60
2023-04-14T10:41:47.949Z,3.50
2023-04-14T10:44:29.253Z,3.30
2023-04-14T10:47:00.508Z,4.10
2023-04-14T10:49:37.245Z,3.70
2023-04-14T10:52:14.940Z,4.80
2023-04-14T10:54:53.694Z,5.40
2023-04-14T10:57:23.784Z,5.10
2023-04-14T10:59:59.119Z,13.60
2023-04-14T11:02:32.243Z,9.70
2023-04-14T11:05:06.646Z,7.10
2023-04-14T11:07:52.019Z,7.40
2023-04-14T11:10:20.928Z,5.80
2023-04-14T11:13:11.703Z,5.20
2023-04-14T11:15:51.690Z,5.80
2023-04-14T11:18:33.395Z,6.00
2023-04-14T11:21:07.006Z,5.60
2023-04-14T11:23:36.980Z,5.70
2023-04-14T11:26:12.554Z,5.00
2023-04-14T11:28:47.059Z,6.30
2023-04-14T11:31:17.445Z,5.60
2023-04-14T11:33:46.361Z,4.70
2023-04-14T11:36:17.853Z,4.80
2023-04-14T11:38:48.040Z,4.30
2023-04-14T11:41:16.523Z,5.90
2023-04-14T11:43:47.294Z,5.70
2023-04-14T11:46:19.490Z,5.40
2023-04-14T11:48:55.416Z,6.30
2023-04-14T11:51:32.732Z,6.00
2023-04-14T11:54:02.348Z,4.40
2023-04-14T11:56:32.512Z,5.00
2023-04-14T11:59:03.596Z,8.40
2023-04-14T12:01:33.424Z,5.20
2023-04-14T12:04:04.296Z,4.00
2023-04-14T12:06:36.604Z,4.60
2023-04-14T12:09:11.716Z,9.20
2023-04-14T12:11:40.660Z,6.00
2023-04-14T12:14:09.616Z,5.30
2023-04-14T12:16:38.468Z,4.90
2023-04-14T12:19:07.811Z,4.10
2023-04-14T12:21:36.237Z,4.00
2023-04-14T12:24:04.854Z,3.00
2023-04-14T12:26:34.310Z,3.30
2023-04-14T12:29:03.475Z,3.40
2023-04-14T12:31:32.169Z,3.30
2023-04-14T12:34:04.253Z,3.60
2023-04-14T12:36:49.030Z,4.20
2023-04-14T12:39:23.224Z,4.70
2023-04-14T12:41:51.657Z,4.90
2023-04-14T12:44:21.600Z,4.40
2023-04-14T12:46:52.960Z,4.40
2023-04-14T12:49:39.021Z,4.20
2023-04-14T12:52:08.871Z,5.80
2023-04-14T12:54:48.967Z,5.20
2023-04-14T12:57:22.097Z,4.60
2023-04-14T12:59:50.786Z,5.30
2023-04-14T13:02:19.498Z,5.60
2023-04-14T13:04:48.268Z,7.00
2023-04-14T13:07:17.193Z,6.50
2023-04-14T13:09:45.772Z,5.50
2023-04-14T13:12:14.353Z,6.70
2023-04-14T13:14:46.208Z,5.00
2023-04-14T13:17:16.414Z,6.70
2023-04-14T13:19:45.025Z,4.60
2023-04-14T13:22:14.271Z,4.50
2023-04-14T13:24:44.068Z,4.20
2023-04-14T13:27:12.612Z,3.60
2023-04-14T13:29:46.682Z,4.20
2023-04-14T13:32:15.624Z,3.20
2023-04-14T13:34:44.101Z,3.80
2023-04-14T13:37:13.093Z,4.40
2023-04-14T13:39:42.149Z,4.10
2023-04-14T13:42:10.600Z,4.80
2023-04-14T13:44:39.424Z,5.70
2023-04-14T13:47:09.019Z,5.80
2023-04-14T13:49:38.659Z,5.60
2023-04-14T13:52:08.555Z,4.90
2023-04-14T13:54:36.960Z,5.40
2023-04-14T13:57:05.600Z,5.50
2023-04-14T13:59:34.008Z,5.00
2023-04-14T14:02:02.974Z,5.40
2023-04-14T14:04:37.212Z,4.40
2023-04-14T14:09:34.546Z,4.30
2023-04-14T14:12:03.377Z,3.40
2023-04-14T14:14:31.934Z,3.80
2023-04-14T14:17:00.295Z,5.70
2023-04-14T14:19:28.734Z,5.40
2023-04-14T14:21:57.229Z,5.00
2023-04-14T14:24:25.446Z,3.60
2023-04-14T14:26:54.044Z,2.40
2023-04-14T14:29:22.534Z,2.50
2023-04-14T14:31:51.961Z,3.10
2023-04-14T14:34:20.884Z,3.90
2023-04-14T14:36:49.285Z,4.40
2023-04-14T14:39:22.080Z,3.10
2023-04-14T14:41:51.652Z,5.40
2023-04-14T14:44:20.110Z,3.40
2023-04-14T14:46:53.647Z,5.30
2023-04-14T14:49:22.442Z,5.40
2023-04-14T14:51:50.926Z,5.40
2023-04-14T14:54:19.391Z,5.30
2023-04-14T14:56:48.087Z,6.00
2023-04-14T14:59:16.768Z,6.30
2023-04-14T15:01:47.042Z,6.00
2023-04-14T15:04:16.395Z,6.00
2023-04-14T15:06:45.079Z,5.90
2023-04-14T15:09:14.633Z,7.30
2023-04-14T15:11:47.431Z,8.60
2023-04-14T15:14:16.027Z,8.20
2023-04-14T15:16:44.497Z,7.30
2023-04-14T15:19:16.463Z,6.60
2023-04-14T15:21:46.020Z,4.80
2023-04-14T15:24:14.334Z,3.90
2023-04-14T15:26:48.585Z,4.30
2023-04-14T15:29:19.506Z,4.10
2023-04-14T15:31:48.299Z,4.10
2023-04-14T15:34:17.163Z,5.00
2023-04-14T15:36:45.641Z,4.20
2023-04-14T15:39:14.325Z,6.40
2023-04-14T15:41:44.632Z,5.20
2023-04-14T15:44:13.250Z,5.20
2023-04-14T15:46:41.466Z,4.90
2023-04-14T15:49:11.405Z,4.70
2023-04-14T15:51:41.408Z,3.60
2023-04-14T15:54:09.846Z,4.00
2023-04-14T15:56:38.579Z,4.20
2023-04-14T15:59:07.396Z,4.10
2023-04-14T16:01:36.126Z,4.20
2023-04-14T16:04:05.233Z,3.90
2023-04-14T16:06:36.510Z,3.80
2023-04-14T16:09:05.528Z,3.90
2023-04-14T16:11:34.192Z,4.40
2023-04-14T16:14:03.340Z,4.90
2023-04-14T16:16:32.826Z,5.20
2023-04-14T16:19:01.222Z,4.40
2023-04-14T16:21:30.081Z,5.20
2023-04-14T16:23:58.583Z,4.60
2023-04-14T16:26:26.961Z,5.50
2023-04-14T16:29:02.843Z,4.50
2023-04-14T16:31:31.925Z,5.20
2023-04-14T16:34:00.756Z,5.20
2023-04-14T16:36:29.759Z,4.90
2023-04-14T16:38:58.658Z,6.00
2023-04-14T16:41:27.354Z,5.50
2023-04-14T16:43:55.928Z,5.10
2023-04-14T16:46:26.112Z,4.30
2023-04-14T16:48:54.579Z,5.60
2023-04-14T16:51:28.080Z,5.10
2023-04-14T16:53:56.865Z,6.00
2023-04-14T16:56:25.424Z,6.50
2023-04-14T16:58:53.717Z,5.80
2023-04-14T17:01:22.312Z,7.10
2023-04-14T17:03:51.476Z,6.90
2023-04-14T17:06:20.061Z,5.80
2023-04-14T17:08:48.712Z,6.20
2023-04-14T17:11:17.064Z,5.80
2023-04-14T17:13:45.294Z,5.10
2023-04-14T17:16:18.891Z,5.00
2023-04-14T17:18:48.463Z,5.90
2023-04-14T17:21:16.938Z,4.80
2023-04-14T17:23:55.527Z,5.70
2023-04-14T17:26:24.963Z,5.50
2023-04-14T17:28:53.198Z,5.30
2023-04-14T17:31:25.134Z,6.10
2023-04-14T17:33:54.282Z,6.80
2023-04-14T17:36:22.991Z,4.70
2023-04-14T17:38:52.245Z,3.90
2023-04-14T17:41:21.457Z,4.00
2023-04-14T17:43:54.177Z,3.50
2023-04-14T17:46:29.466Z,2.80
2023-04-14T17:48:58.050Z,2.60
2023-04-14T17:51:31.265Z,2.40
2023-04-14T17:54:00.121Z,2.30
2023-04-14T17:56:31.597Z,2.50
2023-04-14T17:59:01.754Z,2.70
2023-04-14T18:01:30.540Z,2.90
2023-04-14T18:04:00.505Z,2.90
2023-04-14T18:06:33.837Z,2.80
2023-04-14T18:09:04.362Z,2.90
2023-04-14T18:11:33.542Z,2.50
2023-04-14T18:14:02.131Z,2.60
2023-04-14T18:16:32.993Z,2.70
2023-04-14T18:19:01.950Z,3.10
2023-04-14T18:21:31.131Z,3.30
2023-04-14T18:26:36.874Z,5.50
2023-04-14T18:29:05.391Z,4.10
2023-04-14T18:31:34.001Z,4.60
2023-04-14T18:34:20.382Z,4.60
2023-04-14T18:36:49.410Z,4.40
2023-04-14T18:39:19.079Z,4.90
2023-04-14T18:41:48.471Z,5.40
2023-04-14T18:44:17.263Z,5.10
2023-04-14T18:46:45.757Z,4.40
2023-04-14T18:49:15.435Z,4.50
2023-04-14T18:51:43.709Z,3.60
2023-04-14T18:54:13.363Z,4.30
2023-04-14T18:56:42.175Z,4.20
2023-04-14T18:59:10.614Z,5.00
2023-04-14T19:01:39.648Z,4.20
2023-04-14T19:04:08.278Z,5.50
2023-04-14T19:06:37.480Z,5.10
2023-04-14T19:09:06.105Z,4.90
2023-04-14T19:11:42.473Z,5.30
2023-04-14T19:14:12.983Z,4.50
2023-04-14T19:16:41.446Z,5.80
2023-04-14T19:19:10.620Z,5.30
2023-04-14T19:21:39.677Z,5.50
2023-04-14T19:24:08.463Z,4.90
2023-04-14T19:26:40.754Z,7.10
2023-04-14T19:29:11.375Z,6.30
2023-04-14T19:31:39.682Z,7.30
2023-04-14T19:34:08.032Z,7.40
2023-04-14T19:36:40.491Z,8.30
2023-04-14T19:39:09.231Z,8.70
2023-04-14T19:41:39.143Z,9.30
2023-04-14T19:44:09.193Z,10.20
2023-04-14T19:46:37.623Z,8.60
2023-04-14T19:49:08.359Z,7.90
2023-04-14T19:51:37.616Z,8.20
2023-04-14T19:54:09.542Z,7.80
2023-04-14T19:56:38.384Z,7.10
2023-04-14T19:59:08.373Z,6.60
2023-04-14T20:01:37.327Z,5.90
2023-04-14T20:04:12.822Z,6.30
2023-04-14T20:06:43.043Z,6.00
2023-04-14T20:09:12.303Z,6.20
2023-04-14T20:11:40.851Z,5.50
2023-04-14T20:14:09.495Z,6.60
2023-04-14T20:16:40.843Z,6.40
2023-04-14T20:19:09.613Z,6.30
2023-04-14T20:21:38.792Z,6.20
2023-04-14T20:24:07.345Z,5.90
2023-04-14T20:26:42.778Z,5.80
2023-04-14T20:29:12.335Z,5.60
2023-04-14T20:31:42.986Z,4.80
2023-04-14T20:34:12.269Z,4.20
2023-04-14T20:36:41.153Z,4.20
2023-04-14T20:39:10.041Z,2.70
2023-04-14T20:41:39.988Z,3.20
2023-04-14T20:44:08.350Z,2.90
2023-04-14T20:46:36.729Z,2.50
2023-04-14T20:49:08.772Z,2.70
2023-04-14T20:51:38.141Z,2.80
2023-04-14T20:54:07.297Z,3.00
2023-04-14T20:56:35.912Z,2.90
2023-04-14T20:59:04.775Z,3.10
2023-04-14T21:01:33.205Z,3.00
2023-04-14T21:04:01.567Z,2.70
2023-04-14T21:06:33.018Z,2.40
2023-04-14T21:09:02.609Z,2.30
2023-04-14T21:11:32.139Z,2.90
2023-04-14T21:15:30.990Z,2.40
2023-04-14T21:16:51.079Z,2.80
2023-04-14T21:19:19.780Z,3.30
2023-04-14T21:21:53.195Z,4.00
2023-04-14T21:24:21.627Z,4.40
2023-04-14T21:26:50.085Z,6.20
2023-04-14T21:29:18.433Z,6.70
2023-04-14T21:31:47.309Z,5.40
2023-04-14T21:34:15.573Z,5.70
2023-04-14T21:36:47.438Z,6.30
2023-04-14T21:39:15.941Z,6.20
2023-04-14T21:41:44.890Z,5.90
2023-04-14T21:44:15.900Z,5.80
2023-04-14T21:46:44.368Z,5.50
2023-04-14T21:49:12.757Z,4.70
2023-04-14T21:51:41.017Z,4.00
2023-04-14T21:54:14.070Z,4.30
2023-04-14T21:56:43.321Z,4.90
2023-04-14T21:59:11.993Z,4.00
2023-04-14T22:01:41.356Z,4.10
2023-04-14T22:04:14.518Z,3.80
2023-04-14T22:06:47.955Z,4.80
2023-04-14T22:09:17.063Z,3.80
2023-04-14T22:11:45.944Z,4.30
2023-04-14T22:14:14.376Z,4.30
2023-04-14T22:16:45.361Z,4.40
2023-04-14T22:19:14.458Z,5.10
2023-04-14T22:21:42.907Z,4.60
2023-04-14T22:24:11.353Z,5.00
2023-04-14T22:26:40.282Z,4.80
2023-04-14T22:29:10.989Z,4.90
2023-04-14T22:31:39.879Z,5.00
2023-04-14T22:34:08.914Z,4.90
2023-04-14T22:36:37.558Z,4.80
2023-04-14T22:39:05.942Z,4.50
2023-04-14T22:41:34.398Z,3.90
2023-04-14T22:44:06.143Z,4.50
2023-04-14T22:46:35.714Z,3.80
2023-04-14T22:49:04.597Z,3.40
2023-04-14T22:51:33.451Z,2.80
2023-04-14T22:54:04.906Z,3.70
2023-04-14T22:56:33.586Z,3.40
2023-04-14T22:59:02.572Z,3.00
2023-04-14T23:01:31.749Z,3.60
2023-04-14T23:04:01.632Z,3.10
2023-04-14T23:06:30.262Z,2.70
2023-04-14T23:08:59.785Z,3.20
2023-04-14T23:11:32.149Z,3.30
2023-04-14T23:14:01.162Z,2.30
2023-04-14T23:16:34.930Z,2.70
2023-04-14T23:19:06.894Z,2.90
2023-04-14T23:21:35.490Z,3.40
2023-04-14T23:24:04.339Z,3.80
2023-04-14T23:26:41.406Z,3.50
2023-04-14T23:29:10.873Z,2.80
2023-04-14T23:31:39.506Z,3.00
2023-04-14T23:34:12.106Z,3.20
2023-04-14T23:36:41.941Z,3.30
2023-04-14T23:39:10.667Z,3.20
2023-04-14T23:41:42.007Z,3.00
2023-04-14T23:44:12.660Z,3.00
2023-04-14T23:46:41.932Z,3.30
2023-04-14T23:49:23.728Z,2.70
2023-04-14T23:51:54.247Z,3.90
2023-04-14T23:54:22.537Z,4.20
2023-04-14T23:56:54.968Z,4.90
2023-04-14T23:59:23.928Z,5.00
